createdAt,value
2018-02-12T00:00:13.939Z,0
2018-02-12T00:01:24.048Z,0
2018-02-12T00:02:34.215Z,0
2018-02-12T00:03:44.058Z,0
2018-02-12T00:04:54.213Z,0
2018-02-12T00:06:04.326Z,0
2018-02-12T00:07:14.495Z,0
2018-02-12T00:08:24.626Z,0
2018-02-12T00:09:34.769Z,0
2018-02-12T00:10:44.898Z,0
2018-02-12T00:11:55.022Z,0
2018-02-12T00:13:05.123Z,0
2018-02-12T00:14:15.279Z,0
2018-02-12T00:15:25.152Z,0
2018-02-12T00:16:35.302Z,0
2018-02-12T00:17:45.162Z,0
2018-02-12T00:18:55.422Z,0
2018-02-12T00:20:05.546Z,0
2018-02-12T00:21:15.701Z,0
2018-02-12T00:22:25.864Z,0
2018-02-12T00:23:36.096Z,0
2018-02-12T00:24:46.346Z,0
2018-02-12T00:25:56.233Z,0
2018-02-12T00:27:06.360Z,0
2018-02-12T00:28:17.460Z,0
2018-02-12T00:29:27.591Z,0
2018-02-12T00:30:37.729Z,0
2018-02-12T00:31:47.876Z,0
2018-02-12T00:32:57.979Z,0
2018-02-12T00:34:08.165Z,0
2018-02-12T00:35:18.320Z,0
2018-02-12T00:36:28.574Z,0
2018-02-12T00:37:38.781Z,0
2018-02-12T00:38:48.950Z,0
2018-02-12T00:39:59.113Z,0
2018-02-12T00:41:09.264Z,0
2018-02-12T00:42:19.380Z,0
2018-02-12T00:43:29.235Z,0
2018-02-12T00:44:39.459Z,0
2018-02-12T00:45:49.666Z,0
2018-02-12T00:46:59.813Z,0
2018-02-12T00:48:09.910Z,0
2018-02-12T00:49:20.023Z,0
2018-02-12T00:50:30.218Z,0
2018-02-12T00:51:40.410Z,0
2018-02-12T00:52:50.544Z,0
2018-02-12T00:54:00.765Z,0
2018-02-12T00:55:10.928Z,0
2018-02-12T00:56:21.760Z,0
2018-02-12T00:57:31.916Z,0
2018-02-12T00:58:42.012Z,0
2018-02-12T00:59:51.872Z,0
2018-02-12T01:01:02.045Z,0
2018-02-12T01:02:12.167Z,0
2018-02-12T01:03:22.014Z,0
2018-02-12T01:04:32.118Z,0
2018-02-12T01:05:42.006Z,0
2018-02-12T01:06:52.198Z,0
2018-02-12T01:08:02.604Z,0
2018-02-12T01:09:12.735Z,0
2018-02-12T01:10:22.928Z,0
2018-02-12T01:11:33.211Z,0
2018-02-12T01:12:43.051Z,0
2018-02-12T01:13:53.184Z,0
2018-02-12T01:15:03.289Z,0
2018-02-12T01:16:13.492Z,0
2018-02-12T01:17:23.755Z,0
2018-02-12T01:18:33.953Z,0
2018-02-12T01:19:44.076Z,0
2018-02-12T01:20:54.180Z,0
2018-02-12T01:22:05.259Z,0
2018-02-12T01:23:15.452Z,0
2018-02-12T01:24:25.309Z,0
2018-02-12T01:25:35.440Z,0
2018-02-12T01:26:45.566Z,0
2018-02-12T01:27:55.425Z,0
2018-02-12T01:29:05.559Z,0
2018-02-12T01:30:15.696Z,0
2018-02-12T01:31:25.816Z,0
2018-02-12T01:32:35.938Z,0
2018-02-12T01:33:46.064Z,0
2018-02-12T01:34:56.230Z,0
2018-02-12T01:36:06.343Z,0
2018-02-12T01:37:16.272Z,0
2018-02-12T01:38:26.470Z,0
2018-02-12T01:39:36.679Z,0
2018-02-12T01:40:46.811Z,0
2018-02-12T01:41:56.963Z,0
2018-02-12T01:43:07.101Z,0
2018-02-12T01:44:17.268Z,0
2018-02-12T01:45:27.190Z,0
2018-02-12T01:46:37.405Z,0
2018-02-12T01:47:47.305Z,0
2018-02-12T01:48:57.413Z,0
2018-02-12T01:50:07.524Z,0
2018-02-12T01:51:17.667Z,0
2018-02-12T01:52:27.769Z,0
2018-02-12T01:53:38.851Z,0
2018-02-12T01:54:49.017Z,0
2018-02-12T01:55:59.129Z,0
2018-02-12T01:57:08.976Z,0
2018-02-12T01:58:18.815Z,0
2018-02-12T01:59:28.983Z,0
2018-02-12T02:00:38.847Z,0
2018-02-12T02:01:49.032Z,0
2018-02-12T02:02:58.971Z,0
2018-02-12T02:04:09.094Z,0
2018-02-12T02:05:19.199Z,0
2018-02-12T02:06:29.318Z,0
2018-02-12T02:07:39.183Z,0
2018-02-12T02:08:49.153Z,0
2018-02-12T02:09:59.294Z,0
2018-02-12T02:11:09.463Z,0
2018-02-12T02:12:19.327Z,0
2018-02-12T02:13:30.546Z,0
2018-02-12T02:14:40.827Z,0
2018-02-12T02:15:52.661Z,0
2018-02-12T02:17:02.821Z,0
2018-02-12T02:18:12.977Z,0
2018-02-12T02:19:23.150Z,0
2018-02-12T02:20:33.330Z,0
2018-02-12T02:21:43.522Z,0
2018-02-12T02:22:53.682Z,0
2018-02-12T02:24:03.821Z,0
2018-02-12T02:25:13.939Z,0
2018-02-12T02:26:23.874Z,0
2018-02-12T02:27:34.019Z,0
2018-02-12T02:28:44.147Z,0
2018-02-12T02:29:54.302Z,0
2018-02-12T02:31:04.489Z,0
2018-02-12T02:32:14.253Z,0
2018-02-12T02:33:24.359Z,0
2018-02-12T02:34:34.485Z,0
2018-02-12T02:35:44.597Z,0
2018-02-12T02:36:54.736Z,0
2018-02-12T02:38:04.591Z,0
2018-02-12T02:39:14.461Z,0
2018-02-12T02:40:24.673Z,0
2018-02-12T02:41:34.801Z,0
2018-02-12T02:42:44.901Z,0
2018-02-12T02:43:55.013Z,0
2018-02-12T02:45:05.157Z,0
2018-02-12T02:46:15.327Z,0
2018-02-12T02:47:25.438Z,0
2018-02-12T02:48:35.561Z,0
2018-02-12T02:49:45.678Z,0
2018-02-12T02:50:55.781Z,0
2018-02-12T02:52:05.917Z,0
2018-02-12T02:53:16.083Z,0
2018-02-12T02:54:26.248Z,0
2018-02-12T02:55:36.347Z,0
2018-02-12T02:56:46.558Z,0
2018-02-12T02:57:56.775Z,0
2018-02-12T02:59:07.123Z,0
2018-02-12T03:00:17.245Z,0
2018-02-12T03:01:27.390Z,0
2018-02-12T03:02:37.525Z,0
2018-02-12T03:03:47.656Z,0
2018-02-12T03:04:57.772Z,0
2018-02-12T03:06:07.884Z,0
2018-02-12T03:07:18.057Z,0
2018-02-12T03:08:28.159Z,0
2018-02-12T03:09:38.273Z,0
2018-02-12T03:10:48.143Z,0
2018-02-12T03:11:58.025Z,0
2018-02-12T03:13:08.140Z,0
2018-02-12T03:14:18.270Z,0
2018-02-12T03:15:28.373Z,0
2018-02-12T03:16:38.240Z,0
2018-02-12T03:17:48.189Z,0
2018-02-12T03:18:58.299Z,0
2018-02-12T03:20:08.432Z,0
2018-02-12T03:21:18.543Z,0
2018-02-12T03:22:28.768Z,0
2018-02-12T03:23:38.624Z,0
2018-02-12T03:24:48.493Z,0
2018-02-12T03:25:58.379Z,0
2018-02-12T03:27:09.768Z,0
2018-02-12T03:28:20.025Z,0
2018-02-12T03:29:30.147Z,0
2018-02-12T03:30:40.329Z,0
2018-02-12T03:31:50.444Z,0
2018-02-12T03:33:00.548Z,0
2018-02-12T03:34:10.674Z,0
2018-02-12T03:35:20.530Z,0
2018-02-12T03:36:30.670Z,0
2018-02-12T03:37:40.773Z,0
2018-02-12T03:38:51.034Z,0
2018-02-12T03:40:01.187Z,0
2018-02-12T03:41:11.316Z,0
2018-02-12T03:42:21.444Z,0
2018-02-12T03:43:31.553Z,0
2018-02-12T03:44:41.404Z,0
2018-02-12T03:45:51.533Z,0
2018-02-12T03:47:01.131Z,0
2018-02-12T03:48:10.988Z,0
2018-02-12T03:49:20.878Z,0
2018-02-12T03:50:30.999Z,0
2018-02-12T03:51:40.863Z,0
2018-02-12T03:52:51.198Z,0
2018-02-12T03:54:01.371Z,0
2018-02-12T03:55:11.534Z,0
2018-02-12T03:56:21.652Z,0
2018-02-12T03:57:31.792Z,0
2018-02-12T03:58:41.700Z,0
2018-02-12T03:59:51.839Z,0
2018-02-12T04:01:01.697Z,0
2018-02-12T04:02:12.040Z,0
2018-02-12T04:03:22.163Z,0
2018-02-12T04:04:33.380Z,0
2018-02-12T04:05:43.560Z,0
2018-02-12T04:06:53.675Z,0
2018-02-12T04:08:03.786Z,0
2018-02-12T04:09:13.917Z,0
2018-02-12T04:10:24.026Z,0
2018-02-12T04:11:34.183Z,0
2018-02-12T04:12:44.328Z,0
2018-02-12T04:13:54.458Z,0
2018-02-12T04:15:04.555Z,0
2018-02-12T04:16:14.433Z,0
2018-02-12T04:17:24.544Z,0
2018-02-12T04:18:34.463Z,0
2018-02-12T04:19:44.436Z,0
2018-02-12T04:20:54.677Z,0
2018-02-12T04:22:04.883Z,0
2018-02-12T04:23:15.074Z,0
2018-02-12T04:24:24.968Z,0
2018-02-12T04:25:35.104Z,0
2018-02-12T04:26:45.287Z,0
2018-02-12T04:27:55.389Z,0
2018-02-12T04:29:05.513Z,0
2018-02-12T04:30:15.753Z,0
2018-02-12T04:31:25.985Z,0
2018-02-12T04:32:36.175Z,0
2018-02-12T04:33:46.371Z,0
2018-02-12T04:34:56.480Z,0
2018-02-12T04:36:06.612Z,0
2018-02-12T04:37:16.834Z,0
2018-02-12T04:38:26.960Z,0
2018-02-12T04:39:37.105Z,0
2018-02-12T04:40:47.285Z,0
2018-02-12T04:41:57.644Z,0
2018-02-12T04:43:07.802Z,0
2018-02-12T04:44:17.930Z,0
2018-02-12T04:45:28.037Z,0
2018-02-12T04:46:38.181Z,0
2018-02-12T04:47:48.294Z,0
2018-02-12T04:48:58.391Z,0
2018-02-12T04:50:08.137Z,0
2018-02-12T04:51:18.434Z,0
2018-02-12T04:52:28.613Z,0
2018-02-12T04:53:38.888Z,0
2018-02-12T04:54:48.754Z,0
2018-02-12T04:55:58.646Z,0
2018-02-12T04:57:08.753Z,0
2018-02-12T04:58:18.499Z,0
2018-02-12T04:59:28.627Z,0
2018-02-12T05:00:38.748Z,0
2018-02-12T05:01:48.873Z,0
2018-02-12T05:02:58.483Z,0
2018-02-12T05:04:08.097Z,0
2018-02-12T05:05:18.198Z,0
2018-02-12T05:06:28.330Z,0
2018-02-12T05:07:38.285Z,0
2018-02-12T05:08:48.391Z,0
2018-02-12T05:09:58.489Z,0
2018-02-12T05:11:08.610Z,0
2018-02-12T05:12:18.514Z,0
2018-02-12T05:13:28.463Z,0
2018-02-12T05:14:38.592Z,0
2018-02-12T05:15:48.703Z,0
2018-02-12T05:16:58.851Z,0
2018-02-12T05:18:09.080Z,0
2018-02-12T05:19:18.966Z,0
2018-02-12T05:20:29.138Z,0
2018-02-12T05:21:39.488Z,0
2018-02-12T05:22:49.616Z,0
2018-02-12T05:23:59.806Z,0
2018-02-12T05:25:09.932Z,0
2018-02-12T05:26:20.074Z,0
2018-02-12T05:27:29.922Z,0
2018-02-12T05:28:40.086Z,0
2018-02-12T05:29:50.197Z,0
2018-02-12T05:31:00.298Z,0
2018-02-12T05:32:10.250Z,0
2018-02-12T05:33:20.499Z,0
2018-02-12T05:34:30.804Z,0
2018-02-12T05:35:40.667Z,0
2018-02-12T05:36:50.793Z,0
2018-02-12T05:38:00.637Z,0
2018-02-12T05:39:10.795Z,0
2018-02-12T05:40:20.919Z,0
2018-02-12T05:41:31.181Z,0
2018-02-12T05:42:41.289Z,0
2018-02-12T05:43:51.473Z,0
2018-02-12T05:45:01.726Z,0
2018-02-12T05:46:11.863Z,0
2018-02-12T05:47:21.716Z,0
2018-02-12T05:48:31.830Z,0
2018-02-12T05:49:42.910Z,0
2018-02-12T05:50:53.020Z,0
2018-02-12T05:52:03.137Z,0
2018-02-12T05:53:13.346Z,0
2018-02-12T05:54:23.210Z,0
2018-02-12T05:55:33.340Z,0
2018-02-12T05:56:43.503Z,0
2018-02-12T05:57:53.670Z,0
2018-02-12T05:59:03.915Z,0
2018-02-12T06:00:14.053Z,0
2018-02-12T06:01:24.262Z,0
2018-02-12T06:02:34.439Z,0
2018-02-12T06:03:44.590Z,0
2018-02-12T06:04:54.710Z,0
2018-02-12T06:06:04.833Z,0
2018-02-12T06:07:15.089Z,0
2018-02-12T06:08:25.330Z,0
2018-02-12T06:09:35.460Z,0
2018-02-12T06:10:45.666Z,0
2018-02-12T06:11:55.825Z,0
2018-02-12T06:13:06.070Z,0
2018-02-12T06:14:16.265Z,0
2018-02-12T06:15:26.389Z,0
2018-02-12T06:16:36.481Z,0
2018-02-12T06:17:47.568Z,0
2018-02-12T06:18:57.686Z,0
2018-02-12T06:20:07.817Z,0
2018-02-12T06:21:18.928Z,0
2018-02-12T06:22:29.029Z,0
2018-02-12T06:23:39.206Z,0
2018-02-12T06:24:49.448Z,0
2018-02-12T06:25:59.604Z,0
2018-02-12T06:27:09.853Z,0
2018-02-12T06:28:21.017Z,0
2018-02-12T06:29:31.166Z,0
2018-02-12T06:30:41.014Z,0
2018-02-12T06:31:51.171Z,5
2018-02-12T06:33:01.385Z,5
2018-02-12T06:34:11.578Z,5
2018-02-12T06:35:21.462Z,5
2018-02-12T06:36:31.596Z,5
2018-02-12T06:37:41.711Z,5
2018-02-12T06:38:51.987Z,10
2018-02-12T06:40:02.130Z,10
2018-02-12T06:41:12.314Z,10
2018-02-12T06:42:22.413Z,10
2018-02-12T06:43:32.536Z,10
2018-02-12T06:44:42.656Z,5
2018-02-12T06:45:52.759Z,5
2018-02-12T06:47:03.086Z,10
2018-02-12T06:48:13.271Z,10
2018-02-12T06:49:23.436Z,15
2018-02-12T06:50:33.297Z,15
2018-02-12T06:51:43.431Z,15
2018-02-12T06:52:54.525Z,15
2018-02-12T06:54:04.647Z,15
2018-02-12T06:55:14.760Z,20
2018-02-12T06:56:24.879Z,20
2018-02-12T06:57:35.004Z,20
2018-02-12T06:58:44.870Z,20
2018-02-12T06:59:55.045Z,20
2018-02-12T07:01:05.244Z,20
2018-02-12T07:02:15.426Z,20
2018-02-12T07:03:25.614Z,20
2018-02-12T07:04:35.535Z,15
2018-02-12T07:05:45.408Z,15
2018-02-12T07:06:55.558Z,10
2018-02-12T07:08:05.681Z,10
2018-02-12T07:09:15.804Z,15
2018-02-12T07:10:25.946Z,15
2018-02-12T07:11:36.070Z,15
2018-02-12T07:12:46.178Z,20
2018-02-12T07:13:56.121Z,25
2018-02-12T07:15:06.309Z,30
2018-02-12T07:16:16.476Z,35
2018-02-12T07:17:26.595Z,40
2018-02-12T07:18:36.705Z,40
2018-02-12T07:19:46.452Z,40
2018-02-12T07:20:56.584Z,40
2018-02-12T07:22:06.716Z,40
2018-02-12T07:23:16.838Z,45
2018-02-12T07:24:26.971Z,45
2018-02-12T07:25:37.085Z,50
2018-02-12T07:26:46.885Z,60
2018-02-12T07:27:57.046Z,65
2018-02-12T07:29:07.191Z,65
2018-02-12T07:30:17.308Z,60
2018-02-12T07:31:27.320Z,50
2018-02-12T07:32:37.458Z,50
2018-02-12T07:33:47.613Z,45
2018-02-12T07:34:57.767Z,45
2018-02-12T07:36:07.935Z,45
2018-02-12T07:37:18.139Z,45
2018-02-12T07:38:28.098Z,50
2018-02-12T07:39:38.196Z,50
2018-02-12T07:40:48.093Z,55
2018-02-12T07:41:58.207Z,60
2018-02-12T07:43:08.311Z,75
2018-02-12T07:44:18.448Z,90
2018-02-12T07:45:28.542Z,100
2018-02-12T07:46:38.686Z,95
2018-02-12T07:47:48.533Z,90
2018-02-12T07:48:58.671Z,90
2018-02-12T07:50:08.798Z,85
2018-02-12T07:51:18.660Z,80
2018-02-12T07:52:28.799Z,75
2018-02-12T07:53:38.908Z,70
2018-02-12T07:54:48.432Z,60
2018-02-12T07:55:58.540Z,55
2018-02-12T07:57:08.656Z,55
2018-02-12T07:58:18.574Z,60
2018-02-12T07:59:28.344Z,55
2018-02-12T08:00:38.262Z,55
2018-02-12T08:01:48.432Z,55
2018-02-12T08:02:58.699Z,60
2018-02-12T08:04:08.569Z,65
2018-02-12T08:05:18.681Z,70
2018-02-12T08:06:28.576Z,80
2018-02-12T08:07:38.752Z,90
2018-02-12T08:08:48.867Z,90
2018-02-12T08:09:58.982Z,100
2018-02-12T08:11:08.595Z,115
2018-02-12T08:12:18.810Z,135
2018-02-12T08:13:28.668Z,160
2018-02-12T08:14:38.831Z,190
2018-02-12T08:15:48.945Z,210
2018-02-12T08:16:59.107Z,230
2018-02-12T08:18:09.257Z,240
2018-02-12T08:19:19.406Z,250
2018-02-12T08:20:29.636Z,260
2018-02-12T08:21:39.866Z,270
2018-02-12T08:22:50.023Z,270
2018-02-12T08:24:00.205Z,340
2018-02-12T08:25:10.408Z,370
2018-02-12T08:26:20.656Z,370
2018-02-12T08:27:30.931Z,280
2018-02-12T08:28:41.077Z,260
2018-02-12T08:29:51.353Z,250
2018-02-12T08:31:01.549Z,270
2018-02-12T08:32:11.706Z,270
2018-02-12T08:33:21.841Z,245
2018-02-12T08:34:31.937Z,240
2018-02-12T08:35:41.842Z,235
2018-02-12T08:36:51.985Z,220
2018-02-12T08:38:02.102Z,210
2018-02-12T08:39:12.226Z,195
2018-02-12T08:40:22.368Z,190
2018-02-12T08:41:32.580Z,200
2018-02-12T08:42:42.808Z,225
2018-02-12T08:43:53.093Z,255
2018-02-12T08:45:02.978Z,485
2018-02-12T08:46:12.839Z,635
2018-02-12T08:47:23.028Z,810
2018-02-12T08:48:33.136Z,755
2018-02-12T08:49:43.268Z,535
2018-02-12T08:50:53.129Z,865
2018-02-12T08:52:02.991Z,425
2018-02-12T08:53:13.104Z,700
2018-02-12T08:54:23.213Z,855
2018-02-12T08:55:33.362Z,610
2018-02-12T08:56:43.647Z,740
2018-02-12T08:57:53.805Z,1000
2018-02-12T08:59:03.953Z,420
2018-02-12T09:00:14.391Z,995
2018-02-12T09:01:24.502Z,1110
2018-02-12T09:02:34.650Z,725
2018-02-12T09:03:44.826Z,1190
2018-02-12T09:04:55.081Z,835
2018-02-12T09:06:05.365Z,880
2018-02-12T09:07:15.519Z,1170
2018-02-12T09:08:25.725Z,920
2018-02-12T09:09:35.587Z,1035
2018-02-12T09:10:45.726Z,1045
2018-02-12T09:11:56.033Z,450
2018-02-12T09:13:06.205Z,360
2018-02-12T09:14:16.073Z,335
2018-02-12T09:15:26.022Z,325
2018-02-12T09:16:35.955Z,255
2018-02-12T09:17:46.134Z,240
2018-02-12T09:18:57.223Z,245
2018-02-12T09:20:07.570Z,575
2018-02-12T09:21:17.773Z,1285
2018-02-12T09:22:27.745Z,1280
2018-02-12T09:23:37.878Z,1335
2018-02-12T09:24:47.732Z,1395
2018-02-12T09:25:57.847Z,1460
2018-02-12T09:27:07.967Z,1475
2018-02-12T09:28:19.129Z,825
2018-02-12T09:29:29.289Z,1050
2018-02-12T09:30:39.451Z,585
2018-02-12T09:31:49.718Z,1500
2018-02-12T09:33:00.002Z,1555
2018-02-12T09:34:10.174Z,1505
2018-02-12T09:35:20.360Z,1510
2018-02-12T09:36:30.661Z,1555
2018-02-12T09:37:40.801Z,1580
2018-02-12T09:38:51.010Z,1565
2018-02-12T09:40:01.146Z,1380
2018-02-12T09:41:11.282Z,595
2018-02-12T09:42:22.411Z,400
2018-02-12T09:43:32.572Z,535
2018-02-12T09:44:42.712Z,610
2018-02-12T09:45:52.843Z,575
2018-02-12T09:47:02.973Z,1535
2018-02-12T09:48:13.367Z,1555
2018-02-12T09:49:23.540Z,1510
2018-02-12T09:50:33.760Z,1420
2018-02-12T09:51:43.944Z,1365
2018-02-12T09:52:54.236Z,1330
2018-02-12T09:54:04.385Z,1400
2018-02-12T09:55:15.474Z,1415
2018-02-12T09:56:25.348Z,1540
2018-02-12T09:57:35.531Z,725
2018-02-12T09:58:45.725Z,1480
2018-02-12T09:59:55.654Z,1480
2018-02-12T10:01:05.840Z,1480
2018-02-12T10:02:16.028Z,1380
2018-02-12T10:03:26.199Z,1535
2018-02-12T10:04:36.132Z,1415
2018-02-12T10:05:46.267Z,1370
2018-02-12T10:06:56.387Z,1005
2018-02-12T10:08:06.581Z,490
2018-02-12T10:09:16.552Z,1560
2018-02-12T10:10:26.676Z,1680
2018-02-12T10:11:36.818Z,640
2018-02-12T10:12:47.025Z,1410
2018-02-12T10:13:56.934Z,470
2018-02-12T10:15:07.058Z,1580
2018-02-12T10:16:16.940Z,1700
2018-02-12T10:17:27.092Z,1565
2018-02-12T10:18:37.264Z,1040
2018-02-12T10:19:47.418Z,1565
2018-02-12T10:20:57.699Z,1525
2018-02-12T10:22:07.861Z,1560
2018-02-12T10:23:18.008Z,1595
2018-02-12T10:24:28.263Z,1670
2018-02-12T10:25:38.478Z,1685
2018-02-12T10:26:48.697Z,1720
2018-02-12T10:27:58.852Z,1730
2018-02-12T10:29:09.122Z,1795
2018-02-12T10:30:19.418Z,645
2018-02-12T10:31:29.659Z,1445
2018-02-12T10:32:39.894Z,1720
2018-02-12T10:33:50.034Z,1835
2018-02-12T10:35:00.247Z,1765
2018-02-12T10:36:10.495Z,695
2018-02-12T10:37:20.681Z,730
2018-02-12T10:38:30.879Z,2035
2018-02-12T10:39:41.172Z,1880
2018-02-12T10:40:51.113Z,1910
2018-02-12T10:42:01.295Z,1985
2018-02-12T10:43:11.461Z,1730
2018-02-12T10:44:21.637Z,1870
2018-02-12T10:45:31.802Z,2085
2018-02-12T10:46:42.061Z,700
2018-02-12T10:47:52.255Z,770
2018-02-12T10:49:02.383Z,635
2018-02-12T10:50:12.368Z,735
2018-02-12T10:51:22.597Z,565
2018-02-12T10:52:32.729Z,470
2018-02-12T10:53:42.570Z,940
2018-02-12T10:54:52.724Z,680
2018-02-12T10:56:02.901Z,915
2018-02-12T10:57:13.053Z,430
2018-02-12T10:58:23.220Z,440
2018-02-12T10:59:33.374Z,515
2018-02-12T11:00:43.500Z,460
2018-02-12T11:01:53.664Z,465
2018-02-12T11:03:03.803Z,410
2018-02-12T11:04:13.959Z,385
2018-02-12T11:05:24.088Z,410
2018-02-12T11:06:34.296Z,350
2018-02-12T11:07:44.153Z,345
2018-02-12T11:08:54.332Z,315
2018-02-12T11:10:04.534Z,315
2018-02-12T11:11:14.676Z,280
2018-02-12T11:12:25.558Z,210
2018-02-12T11:13:35.743Z,215
2018-02-12T11:14:45.997Z,215
2018-02-12T11:15:56.118Z,240
2018-02-12T11:17:06.273Z,290
2018-02-12T11:18:16.417Z,290
2018-02-12T11:19:26.304Z,295
2018-02-12T11:20:36.477Z,300
2018-02-12T11:21:46.747Z,360
2018-02-12T11:22:56.891Z,330
2018-02-12T11:24:06.644Z,315
2018-02-12T11:25:16.824Z,290
2018-02-12T11:26:26.988Z,280
2018-02-12T11:27:37.119Z,230
2018-02-12T11:28:47.239Z,215
2018-02-12T11:29:57.358Z,225
2018-02-12T11:31:07.484Z,285
2018-02-12T11:32:17.630Z,270
2018-02-12T11:33:27.147Z,215
2018-02-12T11:34:37.309Z,210
2018-02-12T11:35:47.186Z,220
2018-02-12T11:36:57.048Z,230
2018-02-12T11:38:07.192Z,250
2018-02-12T11:39:17.116Z,190
2018-02-12T11:40:27.245Z,145
2018-02-12T11:41:37.431Z,145
2018-02-12T11:42:47.568Z,200
2018-02-12T11:43:57.696Z,275
2018-02-12T11:45:07.768Z,275
2018-02-12T11:46:18.061Z,215
2018-02-12T11:47:27.843Z,200
2018-02-12T11:48:37.954Z,255
2018-02-12T11:49:48.170Z,280
2018-02-12T11:50:58.055Z,340
2018-02-12T11:52:08.182Z,370
2018-02-12T11:53:18.409Z,405
2018-02-12T11:54:28.533Z,380
2018-02-12T11:55:38.741Z,350
2018-02-12T11:56:48.872Z,450
2018-02-12T11:57:58.946Z,345
2018-02-12T11:59:09.119Z,300
2018-02-12T12:00:19.252Z,270
2018-02-12T12:01:29.626Z,240
2018-02-12T12:02:39.746Z,200
2018-02-12T12:03:49.855Z,175
2018-02-12T12:05:00.209Z,155
2018-02-12T12:06:10.334Z,135
2018-02-12T12:07:20.342Z,110
2018-02-12T12:08:30.494Z,100
2018-02-12T12:09:40.608Z,125
2018-02-12T12:10:51.050Z,170
2018-02-12T12:12:01.358Z,165
2018-02-12T12:13:11.555Z,145
2018-02-12T12:14:21.682Z,170
2018-02-12T12:15:31.842Z,220
2018-02-12T12:16:42.204Z,180
2018-02-12T12:17:52.317Z,150
2018-02-12T12:19:02.445Z,125
2018-02-12T12:20:12.580Z,110
2018-02-12T12:21:22.725Z,120
2018-02-12T12:22:32.868Z,165
2018-02-12T12:23:43.047Z,185
2018-02-12T12:24:53.245Z,195
2018-02-12T12:26:03.106Z,195
2018-02-12T12:27:13.280Z,205
2018-02-12T12:28:23.413Z,250
2018-02-12T12:29:33.535Z,320
2018-02-12T12:30:43.689Z,400
2018-02-12T12:31:53.562Z,515
2018-02-12T12:33:03.686Z,460
2018-02-12T12:34:14.783Z,490
2018-02-12T12:35:25.017Z,350
2018-02-12T12:36:35.153Z,350
2018-02-12T12:37:45.216Z,375
2018-02-12T12:38:55.203Z,360
2018-02-12T12:40:05.329Z,345
2018-02-12T12:41:15.495Z,400
2018-02-12T12:42:25.748Z,490
2018-02-12T12:43:36.017Z,620
2018-02-12T12:44:46.222Z,645
2018-02-12T12:45:56.388Z,670
2018-02-12T12:47:06.533Z,525
2018-02-12T12:48:16.764Z,1190
2018-02-12T12:49:26.965Z,495
2018-02-12T12:50:37.212Z,495
2018-02-12T12:51:48.436Z,480
2018-02-12T12:52:58.717Z,490
2018-02-12T12:54:08.921Z,800
2018-02-12T12:55:19.102Z,545
2018-02-12T12:56:29.270Z,815
2018-02-12T12:57:39.472Z,860
2018-02-12T12:58:49.607Z,1170
2018-02-12T12:59:59.538Z,1250
2018-02-12T13:01:09.706Z,1215
2018-02-12T13:02:19.846Z,555
2018-02-12T13:03:29.638Z,335
2018-02-12T13:04:39.526Z,245
2018-02-12T13:05:49.426Z,190
2018-02-12T13:06:59.544Z,170
2018-02-12T13:08:09.670Z,220
2018-02-12T13:09:19.882Z,250
2018-02-12T13:10:30.039Z,270
2018-02-12T13:11:40.224Z,235
2018-02-12T13:12:50.412Z,210
2018-02-12T13:14:00.643Z,230
2018-02-12T13:15:10.888Z,250
2018-02-12T13:16:21.154Z,565
2018-02-12T13:17:31.289Z,380
2018-02-12T13:18:41.433Z,470
2018-02-12T13:19:51.585Z,1545
2018-02-12T13:21:01.704Z,1725
2018-02-12T13:22:11.845Z,1570
2018-02-12T13:23:21.709Z,1535
2018-02-12T13:24:31.850Z,1595
2018-02-12T13:25:41.987Z,1590
2018-02-12T13:26:52.138Z,1500
2018-02-12T13:28:02.317Z,1370
2018-02-12T13:29:12.464Z,1390
2018-02-12T13:30:23.314Z,1575
2018-02-12T13:31:33.474Z,1640
2018-02-12T13:32:43.692Z,1440
2018-02-12T13:33:53.318Z,525
2018-02-12T13:35:03.432Z,1155
2018-02-12T13:36:13.692Z,415
2018-02-12T13:37:23.809Z,1010
2018-02-12T13:38:33.942Z,350
2018-02-12T13:39:44.118Z,385
2018-02-12T13:40:54.018Z,340
2018-02-12T13:42:04.235Z,315
2018-02-12T13:43:14.426Z,245
2018-02-12T13:44:24.700Z,175
2018-02-12T13:45:34.870Z,145
2018-02-12T13:46:45.990Z,180
2018-02-12T13:47:56.239Z,235
2018-02-12T13:49:06.417Z,260
2018-02-12T13:50:16.666Z,265
2018-02-12T13:51:26.823Z,270
2018-02-12T13:52:36.994Z,265
2018-02-12T13:53:47.317Z,220
2018-02-12T13:54:57.471Z,165
2018-02-12T13:56:07.387Z,115
2018-02-12T13:57:17.517Z,75
2018-02-12T13:58:27.640Z,70
2018-02-12T13:59:37.775Z,70
2018-02-12T14:00:47.916Z,85
2018-02-12T14:01:58.123Z,100
2018-02-12T14:03:08.278Z,120
2018-02-12T14:04:18.439Z,135
2018-02-12T14:05:28.553Z,150
2018-02-12T14:06:38.695Z,160
2018-02-12T14:07:48.897Z,175
2018-02-12T14:08:59.280Z,155
2018-02-12T14:10:09.423Z,140
2018-02-12T14:11:19.644Z,115
2018-02-12T14:12:29.858Z,100
2018-02-12T14:13:40.055Z,90
2018-02-12T14:14:50.276Z,85
2018-02-12T14:16:00.141Z,95
2018-02-12T14:17:10.270Z,145
2018-02-12T14:18:20.189Z,180
2018-02-12T14:19:30.321Z,230
2018-02-12T14:20:40.207Z,300
2018-02-12T14:21:50.340Z,325
2018-02-12T14:23:01.498Z,290
2018-02-12T14:24:11.625Z,240
2018-02-12T14:25:21.746Z,235
2018-02-12T14:26:31.935Z,265
2018-02-12T14:27:42.106Z,280
2018-02-12T14:28:52.222Z,285
2018-02-12T14:30:02.349Z,295
2018-02-12T14:31:12.562Z,290
2018-02-12T14:32:22.735Z,270
2018-02-12T14:33:32.867Z,260
2018-02-12T14:34:43.005Z,255
2018-02-12T14:35:53.026Z,240
2018-02-12T14:37:02.979Z,170
2018-02-12T14:38:13.189Z,145
2018-02-12T14:39:23.365Z,130
2018-02-12T14:40:33.512Z,120
2018-02-12T14:41:43.656Z,110
2018-02-12T14:42:53.774Z,105
2018-02-12T14:44:03.952Z,100
2018-02-12T14:45:14.179Z,105
2018-02-12T14:46:24.413Z,285
2018-02-12T14:47:34.647Z,110
2018-02-12T14:48:44.825Z,105
2018-02-12T14:49:54.956Z,105
2018-02-12T14:51:05.198Z,110
2018-02-12T14:52:15.473Z,120
2018-02-12T14:53:25.701Z,145
2018-02-12T14:54:35.979Z,150
2018-02-12T14:55:46.199Z,265
2018-02-12T14:56:56.344Z,165
2018-02-12T14:58:06.605Z,170
2018-02-12T14:59:16.784Z,145
2018-02-12T15:00:26.961Z,135
2018-02-12T15:01:37.242Z,135
2018-02-12T15:02:47.108Z,160
2018-02-12T15:03:57.241Z,305
2018-02-12T15:05:06.748Z,180
2018-02-12T15:06:16.881Z,370
2018-02-12T15:07:27.010Z,300
2018-02-12T15:08:37.170Z,170
2018-02-12T15:09:47.356Z,165
2018-02-12T15:10:57.511Z,200
2018-02-12T15:12:07.650Z,185
2018-02-12T15:13:17.900Z,165
2018-02-12T15:14:29.269Z,165
2018-02-12T15:15:39.402Z,165
2018-02-12T15:16:49.629Z,165
2018-02-12T15:17:59.806Z,160
2018-02-12T15:19:10.097Z,155
2018-02-12T15:20:20.201Z,155
2018-02-12T15:21:30.394Z,150
2018-02-12T15:22:40.543Z,145
2018-02-12T15:23:50.541Z,135
2018-02-12T15:25:00.443Z,130
2018-02-12T15:26:10.586Z,120
2018-02-12T15:27:20.728Z,115
2018-02-12T15:28:32.071Z,110
2018-02-12T15:29:43.175Z,105
2018-02-12T15:30:53.348Z,100
2018-02-12T15:32:03.483Z,100
2018-02-12T15:33:13.626Z,95
2018-02-12T15:34:23.781Z,95
2018-02-12T15:35:33.949Z,95
2018-02-12T15:36:43.820Z,90
2018-02-12T15:37:53.941Z,95
2018-02-12T15:39:04.075Z,95
2018-02-12T15:40:14.233Z,95
2018-02-12T15:41:24.370Z,90
2018-02-12T15:42:34.609Z,90
2018-02-12T15:43:44.822Z,85
2018-02-12T15:44:55.198Z,85
2018-02-12T15:46:05.232Z,75
2018-02-12T15:47:15.387Z,70
2018-02-12T15:48:25.567Z,60
2018-02-12T15:49:35.494Z,60
2018-02-12T15:50:45.453Z,55
2018-02-12T15:51:55.570Z,50
2018-02-12T15:53:06.015Z,45
2018-02-12T15:54:16.505Z,45
2018-02-12T15:55:26.884Z,45
2018-02-12T15:56:37.256Z,45
2018-02-12T15:57:47.618Z,40
2018-02-12T15:58:57.748Z,40
2018-02-12T16:00:08.127Z,40
2018-02-12T16:01:18.257Z,40
2018-02-12T16:02:28.132Z,35
2018-02-12T16:03:38.244Z,35
2018-02-12T16:04:48.133Z,35
2018-02-12T16:05:58.548Z,30
2018-02-12T16:07:08.728Z,30
2018-02-12T16:08:18.888Z,25
2018-02-12T16:09:29.076Z,25
2018-02-12T16:10:39.125Z,20
2018-02-12T16:11:49.120Z,20
2018-02-12T16:12:59.298Z,20
2018-02-12T16:14:09.464Z,15
2018-02-12T16:15:19.608Z,15
2018-02-12T16:16:29.793Z,15
2018-02-12T16:17:39.932Z,15
2018-02-12T16:18:50.090Z,10
2018-02-12T16:20:00.269Z,10
2018-02-12T16:21:10.480Z,10
2018-02-12T16:22:20.712Z,10
2018-02-12T16:23:31.836Z,5
2018-02-12T16:24:42.078Z,5
2018-02-12T16:25:52.018Z,5
2018-02-12T16:27:02.219Z,5
2018-02-12T16:28:12.119Z,5
2018-02-12T16:29:22.289Z,5
2018-02-12T16:30:32.212Z,5
2018-02-12T16:31:42.452Z,0
2018-02-12T16:32:52.683Z,0
2018-02-12T16:34:03.021Z,0
2018-02-12T16:35:13.519Z,0